Time;durP1;ratioP1;P1;durP2;ratioP2;P2;SDS_P1;SDS_P2;PMS_P1;PMS_P2;Temp;Humidity;BMP_temperature;BMP_pressure;BME280_temperature;BME280_humidity;BME280_pressure;Samples;Min_cycle;Max_cycle;Signal;HPM_P1;HPM_P2
2021/09/30 00:02:24;;;;;;;;;;;;;;;19.95;56.66;101737.53;5071016;28;968;-47
2021/09/30 00:04:49;;;;;;;;;;;;;;;20.25;57.15;101736.75;5075602;28;1003;-48
2021/09/30 00:07:15;;;;;;;;;;;;;;;20.40;57.55;101741.47;5071449;28;1024;-51
2021/09/30 00:09:44;;;;;;;;;;;;;;;20.46;58.16;101740.34;5074983;28;968;-48
2021/09/30 00:12:15;;;;;;;;;;;;;;;20.58;58.33;101744.75;5075623;28;1052;-48
2021/09/30 00:46:55;;;;;;;;;;;;;;;20.03;56.49;101719.63;5070618;28;1040;-48
2021/09/30 01:47:01;;;;;;;;;;;;;;;20.70;58.25;101717.69;5056407;28;1186;-48
2021/09/30 02:21:06;;;;;;;;;;;;;;;19.11;53.75;101698.88;5036257;28;1124;-48
2021/09/30 02:58:46;;;;;;;;;;;;;;;20.03;53.04;101703.06;5044863;28;1179;-51
2021/09/30 03:01:13;;;;;;;;;;;;;;;19.31;50.73;101703.66;5042025;28;1153;-50
2021/09/30 03:03:42;;;;;;;;;;;;;;;18.97;49.02;101706.78;5059244;28;1135;-50
2021/09/30 03:06:07;;;;;;;;;;;;;;;18.77;49.77;101702.78;5037932;28;1222;-47
2021/09/30 03:08:47;;;;;;;;;;;;;;;19.02;52.23;101701.31;5058798;28;1024;-46
2021/09/30 03:11:13;;;;;;;;;;;;;;;19.32;54.45;101695.13;5060611;28;1120;-47
2021/09/30 03:13:39;;;;;;;;;;;;;;;19.51;53.94;101693.81;5058305;28;1087;-48
2021/09/30 03:16:28;;;;;;;;;;;;;;;19.13;54.11;101700.25;5041853;28;1910;-47
2021/09/30 03:19:01;;;;;;;;;;;;;;;18.82;53.82;101693.75;5058578;28;1402;-47
2021/09/30 03:24:16;;;;;;;;;;;;;;;19.12;54.68;101698.59;5055233;28;1000;-48
2021/09/30 03:26:42;;;;;;;;;;;;;;;19.42;55.72;101702.59;5056766;28;2042;-49
2021/09/30 03:29:07;;;;;;;;;;;;;;;19.77;56.50;101703.00;5035787;28;1213;-50
2021/09/30 03:31:33;;;;;;;;;;;;;;;20.16;56.78;101696.97;5058052;28;1139;-48
2021/09/30 03:34:21;;;;;;;;;;;;;;;20.22;57.70;101700.59;5041340;28;1082;-51
2021/09/30 03:36:47;;;;;;;;;;;;;;;20.32;58.19;101697.81;5039426;28;1997;-49
2021/09/30 03:39:15;;;;;;;;;;;;;;;20.44;58.34;101695.59;5040362;28;1107;-53
2021/09/30 03:41:42;;;;;;;;;;;;;;;20.52;58.58;101703.34;5057194;28;1393;-49
2021/09/30 03:44:08;;;;;;;;;;;;;;;20.66;58.35;101703.59;5057215;28;1095;-47
2021/09/30 03:46:35;;;;;;;;;;;;;;;20.91;58.02;101701.06;5057677;28;1376;-47
2021/09/30 03:49:29;;;;;;;;;;;;;;;20.96;58.00;101695.53;5075624;28;1421;-55
2021/09/30 03:59:28;;;;;;;;;;;;;;;20.63;57.97;101709.66;5050003;28;1040;-56
2021/09/30 04:02:09;;;;;;;;;;;;;;;20.37;57.43;101706.09;5057904;28;1190;-57
2021/09/30 04:04:35;;;;;;;;;;;;;;;20.22;56.22;101697.81;5056270;28;1312;-52
2021/09/30 04:07:02;;;;;;;;;;;;;;;20.07;55.52;101713.25;5057754;28;1164;-49
2021/09/30 04:09:28;;;;;;;;;;;;;;;19.75;55.60;101717.03;5057416;28;953;-60
2021/09/30 04:11:54;;;;;;;;;;;;;;;19.78;54.33;101711.00;5075499;28;949;-60
2021/09/30 04:14:19;;;;;;;;;;;;;;;19.59;54.47;101716.19;5057082;28;1263;-60
2021/09/30 04:16:47;;;;;;;;;;;;;;;19.69;53.47;101714.56;5050500;28;1985;-61
2021/09/30 04:19:17;;;;;;;;;;;;;;;19.48;53.52;101715.31;5075825;28;933;-59
2021/09/30 04:21:43;;;;;;;;;;;;;;;19.44;53.14;101722.47;5052749;28;1732;-51
2021/09/30 04:24:11;;;;;;;;;;;;;;;19.28;53.85;101715.25;5057054;28;1374;-59
2021/09/30 04:26:38;;;;;;;;;;;;;;;19.38;53.41;101723.56;5056630;28;1171;-58
2021/09/30 04:29:03;;;;;;;;;;;;;;;19.26;53.99;101720.19;5057148;28;1098;-54
2021/09/30 04:31:29;;;;;;;;;;;;;;;19.52;54.28;101721.13;5058256;28;1159;-56
2021/09/30 04:33:55;;;;;;;;;;;;;;;19.71;55.08;101715.91;5061602;28;1083;-55
2021/09/30 04:36:21;;;;;;;;;;;;;;;19.94;56.17;101722.09;5077171;28;1905;-57
2021/09/30 04:38:47;;;;;;;;;;;;;;;20.05;56.75;101728.44;5047170;28;1201;-56
2021/09/30 04:41:13;;;;;;;;;;;;;;;20.21;57.38;101734.81;5061295;28;1401;-53
2021/09/30 04:43:39;;;;;;;;;;;;;;;20.46;57.18;101736.75;5060734;28;1334;-57
2021/09/30 04:46:05;;;;;;;;;;;;;;;20.41;57.85;101745.88;5061543;28;1012;-57
2021/09/30 04:48:39;;;;;;;;;;;;;;;20.51;57.95;101745.88;5061134;28;1403;-54
2021/09/30 04:51:13;;;;;;;;;;;;;;;20.58;58.00;101744.75;5060548;28;1178;-56
2021/09/30 04:53:38;;;;;;;;;;;;;;;20.85;57.50;101755.56;5057367;28;1298;-51
2021/09/30 04:56:04;;;;;;;;;;;;;;;20.78;57.66;101750.31;5072365;28;1913;-57
2021/09/30 04:58:35;;;;;;;;;;;;;;;21.04;56.98;101750.25;5060565;28;1595;-54
2021/09/30 05:01:00;;;;;;;;;;;;;;;20.84;57.64;101749.16;5060411;28;1098;-55
2021/09/30 05:03:26;;;;;;;;;;;;;;;21.10;56.83;101753.84;5060994;28;1986;-58
2021/09/30 05:05:51;;;;;;;;;;;;;;;21.16;56.62;101766.53;5060101;28;1020;-60
2021/09/30 05:08:17;;;;;;;;;;;;;;;21.09;56.67;101760.47;5073058;28;887;-55
2021/09/30 05:10:44;;;;;;;;;;;;;;;20.47;55.89;101766.88;5078872;28;976;-60
2021/09/30 05:13:16;;;;;;;;;;;;;;;19.93;53.90;101759.88;5060472;28;1186;-61
2021/09/30 05:15:42;;;;;;;;;;;;;;;19.35;51.13;101765.47;5060725;28;1917;-60
2021/09/30 05:18:44;;;;;;;;;;;;;;;18.96;48.15;101757.53;5044885;28;1330;-60
2021/09/30 05:21:10;;;;;;;;;;;;;;;18.66;49.30;101760.84;5059360;28;1205;-60
2021/09/30 05:23:35;;;;;;;;;;;;;;;19.28;51.72;101773.97;5059402;28;1138;-59
2021/09/30 05:26:01;;;;;;;;;;;;;;;19.47;54.23;101771.59;5060697;28;1261;-60
2021/09/30 05:28:27;;;;;;;;;;;;;;;19.86;55.20;101777.81;5057760;28;1427;-60
2021/09/30 05:35:05;;;;;;;;;;;;;;;20.26;57.49;101776.22;5166273;23;6892;-61
2021/09/30 05:37:44;;;;;;;;;;;;;;;20.55;57.53;101767.41;4999970;28;1188;-61
2021/09/30 05:40:16;;;;;;;;;;;;;;;20.73;57.39;101763.31;4993595;28;946;-61
2021/09/30 05:42:45;;;;;;;;;;;;;;;20.73;57.95;101764.13;5000296;28;1256;-63
2021/09/30 05:45:11;;;;;;;;;;;;;;;20.82;57.78;101768.00;4992170;28;1237;-62
2021/09/30 05:47:37;;;;;;;;;;;;;;;20.93;57.59;101751.38;4993608;28;1211;-61
2021/09/30 05:50:06;;;;;;;;;;;;;;;20.92;57.75;101771.84;4992253;28;1906;-60
2021/09/30 05:52:40;;;;;;;;;;;;;;;21.03;57.32;101770.72;4993212;28;1094;-60
2021/09/30 05:55:13;;;;;;;;;;;;;;;21.18;56.64;101776.22;4992016;28;1650;-62
2021/09/30 05:57:38;;;;;;;;;;;;;;;21.15;56.80;101776.78;4992093;28;1183;-62
2021/09/30 06:14:04;;;;;;;;;;;;;;;18.55;50.02;101762.69;4993316;28;895;-61
2021/09/30 06:16:31;;;;;;;;;;;;;;;19.04;53.19;101769.97;4991625;28;1175;-62
2021/09/30 06:19:09;;;;;;;;;;;;;;;19.39;55.09;101763.81;4991316;28;1167;-61
2021/09/30 06:21:36;;;;;;;;;;;;;;;19.81;55.84;101767.59;4991124;28;1124;-61
2021/09/30 06:24:03;;;;;;;;;;;;;;;20.08;56.81;101759.09;4991841;28;1645;-61
2021/09/30 06:26:30;;;;;;;;;;;;;;;20.25;57.35;101767.13;4984664;28;1240;-60
2021/09/30 06:29:16;;;;;;;;;;;;;;;20.50;57.30;101766.31;4991639;28;1157;-61
2021/09/30 06:31:41;;;;;;;;;;;;;;;20.48;57.93;101770.44;4989952;28;1977;-62
2021/09/30 06:34:25;;;;;;;;;;;;;;;20.50;58.57;101777.38;4986577;28;1193;-61
2021/09/30 06:37:14;;;;;;;;;;;;;;;20.85;57.71;101781.25;4987808;28;1263;-60
2021/09/30 06:39:39;;;;;;;;;;;;;;;21.14;56.87;101774.28;4991844;28;1033;-61
2021/09/30 06:42:05;;;;;;;;;;;;;;;21.04;57.00;101777.88;4985995;28;1206;-60
2021/09/30 06:44:43;;;;;;;;;;;;;;;21.05;57.01;101770.44;4980081;28;970;-62
2021/09/30 06:47:27;;;;;;;;;;;;;;;21.26;56.23;101782.28;4979275;28;1029;-61
2021/09/30 06:50:00;;;;;;;;;;;;;;;21.14;56.70;101780.66;4978388;28;1910;-63
2021/09/30 06:52:43;;;;;;;;;;;;;;;20.85;56.09;101774.91;4979648;28;1132;-61
2021/09/30 06:55:27;;;;;;;;;;;;;;;20.17;53.99;101771.28;4978208;28;1321;-62
2021/09/30 06:58:11;;;;;;;;;;;;;;;19.60;51.55;101763.88;4973848;28;880;-62
2021/09/30 07:01:06;;;;;;;;;;;;;;;19.13;49.26;101777.47;4979329;28;1253;-61
2021/09/30 07:03:50;;;;;;;;;;;;;;;18.92;48.00;101771.00;4977871;28;875;-61
2021/09/30 07:06:20;;;;;;;;;;;;;;;19.04;51.30;101784.59;4977902;28;1201;-60
2021/09/30 07:08:45;;;;;;;;;;;;;;;19.21;54.06;101783.56;4973019;28;2153;-60
2021/09/30 07:11:10;;;;;;;;;;;;;;;19.52;55.73;101775.44;4974266;28;1922;-60
2021/09/30 07:13:36;;;;;;;;;;;;;;;19.93;56.14;101781.16;4978191;28;986;-60
2021/09/30 07:16:01;;;;;;;;;;;;;;;20.14;56.88;101777.31;4978842;28;989;-60
2021/09/30 07:18:27;;;;;;;;;;;;;;;20.33;57.17;101787.88;4978787;28;1010;-60
2021/09/30 07:21:00;;;;;;;;;;;;;;;20.68;56.90;101789.00;4978728;28;963;-61
2021/09/30 07:23:26;;;;;;;;;;;;;;;20.73;57.34;101786.22;4977396;28;890;-60
2021/09/30 07:25:51;;;;;;;;;;;;;;;20.92;57.04;101794.78;4978483;28;998;-61
2021/09/30 07:28:19;;;;;;;;;;;;;;;20.79;57.62;101782.38;4975798;28;986;-61
2021/09/30 07:30:44;;;;;;;;;;;;;;;21.01;57.02;101787.59;4978520;28;1985;-61
2021/09/30 07:33:11;;;;;;;;;;;;;;;20.91;57.34;101781.25;4972924;28;938;-61
2021/09/30 07:35:37;;;;;;;;;;;;;;;21.22;56.41;101787.53;4978482;28;1328;-60
2021/09/30 07:38:02;;;;;;;;;;;;;;;21.08;56.24;101787.28;4975778;28;869;-60
2021/09/30 07:40:28;;;;;;;;;;;;;;;20.37;55.58;101793.66;4977784;28;1188;-61
2021/09/30 07:42:56;;;;;;;;;;;;;;;19.65;53.84;101783.22;4978934;28;1049;-60
2021/09/30 07:45:21;;;;;;;;;;;;;;;19.37;50.80;101788.06;4979015;28;1005;-60
2021/09/30 07:47:47;;;;;;;;;;;;;;;18.93;48.86;101793.88;4978414;28;1006;-60
2021/09/30 07:50:12;;;;;;;;;;;;;;;18.80;51.07;101790.47;4978776;28;1981;-60
2021/09/30 07:52:37;;;;;;;;;;;;;;;19.28;53.34;101793.28;4977598;28;1124;-60
2021/09/30 07:55:03;;;;;;;;;;;;;;;19.46;55.65;101792.00;4976425;28;1065;-60
2021/09/30 07:57:29;;;;;;;;;;;;;;;19.83;56.13;101796.56;4977616;28;1400;-61
2021/09/30 07:59:54;;;;;;;;;;;;;;;20.03;57.29;101800.50;4972292;28;966;-61
2021/09/30 08:02:20;;;;;;;;;;;;;;;20.27;57.50;101800.00;4976681;28;965;-61
2021/09/30 08:04:45;;;;;;;;;;;;;;;20.43;57.77;101809.16;4967383;28;1006;-60
2021/09/30 08:07:11;;;;;;;;;;;;;;;20.63;57.41;101805.56;4973307;28;869;-61
2021/09/30 08:09:36;;;;;;;;;;;;;;;20.77;57.36;101803.09;4970308;28;1149;-61
2021/09/30 08:12:02;;;;;;;;;;;;;;;20.70;57.66;101797.03;4977829;28;1973;-60
2021/09/30 08:14:27;;;;;;;;;;;;;;;20.99;56.89;101808.34;4975167;28;1184;-60
2021/09/30 08:16:53;;;;;;;;;;;;;;;21.10;56.57;101798.09;4977445;28;1173;-60
2021/09/30 08:19:18;;;;;;;;;;;;;;;21.00;56.67;101797.00;4975725;28;1176;-60
2021/09/30 08:21:46;;;;;;;;;;;;;;;21.19;56.10;101801.94;4977486;28;978;-61
2021/09/30 08:24:12;;;;;;;;;;;;;;;21.22;56.12;101798.59;4971193;28;967;-60
2021/09/30 08:26:38;;;;;;;;;;;;;;;21.33;55.43;101797.47;4972206;28;982;-60
2021/09/30 08:29:03;;;;;;;;;;;;;;;20.89;55.92;101806.41;4971909;28;1081;-61
2021/09/30 08:31:28;;;;;;;;;;;;;;;20.13;55.77;101797.78;4967817;28;1910;-61
2021/09/30 08:33:58;;;;;;;;;;;;;;;19.79;54.13;101803.72;4969758;28;1275;-60
2021/09/30 08:36:23;;;;;;;;;;;;;;;19.59;52.65;101806.41;4974855;28;1013;-59
2021/09/30 08:38:49;;;;;;;;;;;;;;;19.30;51.84;101812.31;4973980;28;950;-61
2021/09/30 08:41:14;;;;;;;;;;;;;;;18.86;51.32;101810.63;4975977;28;978;-59
2021/09/30 08:43:40;;;;;;;;;;;;;;;18.78;51.89;101814.66;4975124;28;1260;-61
2021/09/30 08:46:06;;;;;;;;;;;;;;;19.11;53.25;101818.25;4974488;28;1307;-61
2021/09/30 08:48:32;;;;;;;;;;;;;;;19.45;54.88;101809.63;4974643;28;989;-61
2021/09/30 08:50:57;;;;;;;;;;;;;;;19.73;56.21;101813.06;4974974;28;1899;-61
2021/09/30 08:53:23;;;;;;;;;;;;;;;20.12;56.51;101809.91;4977055;28;972;-60
2021/09/30 08:55:52;;;;;;;;;;;;;;;20.27;56.97;101808.28;4976021;28;1370;-61
2021/09/30 08:58:17;;;;;;;;;;;;;;;20.32;57.67;101808.28;4976608;28;1184;-61
2021/09/30 09:00:43;;;;;;;;;;;;;;;20.65;57.57;101803.34;4975158;28;1045;-61
2021/09/30 09:03:09;;;;;;;;;;;;;;;20.62;57.75;101803.88;4974492;28;1161;-60
2021/09/30 09:05:38;;;;;;;;;;;;;;;20.88;57.34;101804.75;4972532;28;1399;-60
2021/09/30 09:08:04;;;;;;;;;;;;;;;20.81;57.49;101813.31;4973147;28;1113;-61
2021/09/30 09:10:30;;;;;;;;;;;;;;;21.04;56.72;101808.31;4976981;28;1910;-61
2021/09/30 09:13:02;;;;;;;;;;;;;;;21.15;56.48;101807.22;4976823;28;1215;-60
2021/09/30 09:15:35;;;;;;;;;;;;;;;20.96;56.06;101806.94;4971638;28;982;-61
2021/09/30 09:18:10;;;;;;;;;;;;;;;20.12;55.96;101823.72;4976283;28;1120;-61
2021/09/30 09:20:35;;;;;;;;;;;;;;;19.85;54.24;101812.84;4975367;28;989;-61
2021/09/30 09:23:00;;;;;;;;;;;;;;;19.47;53.04;101815.72;4969764;28;1104;-60
2021/09/30 09:25:27;;;;;;;;;;;;;;;19.33;51.42;101820.03;4970336;28;1154;-60
2021/09/30 09:27:53;;;;;;;;;;;;;;;19.03;50.31;101824.28;4976850;28;1495;-61
2021/09/30 09:30:25;;;;;;;;;;;;;;;18.96;51.00;101815.41;4976553;28;1952;-60
2021/09/30 09:33:00;;;;;;;;;;;;;;;19.19;54.23;101816.09;4976870;28;1025;-61
2021/09/30 09:35:25;;;;;;;;;;;;;;;19.44;56.03;101821.75;4974655;28;1109;-61
2021/09/30 09:37:52;;;;;;;;;;;;;;;19.77;57.07;101808.69;4975464;28;868;-61
2021/09/30 09:40:18;;;;;;;;;;;;;;;20.11;56.99;101816.53;4976371;28;1136;-61
2021/09/30 09:42:45;;;;;;;;;;;;;;;20.34;57.51;101811.59;4976524;28;1065;-61
2021/09/30 09:45:13;;;;;;;;;;;;;;;20.48;57.69;101804.44;4977176;28;994;-61
2021/09/30 09:47:38;;;;;;;;;;;;;;;20.49;58.05;101811.63;4976067;28;1117;-60
2021/09/30 09:50:10;;;;;;;;;;;;;;;20.60;58.09;101808.88;4976430;28;1898;-60
2021/09/30 09:52:51;;;;;;;;;;;;;;;20.84;57.42;101815.53;4970066;28;1109;-60
2021/09/30 09:55:35;;;;;;;;;;;;;;;20.92;57.12;101805.84;4976455;28;981;-60
2021/09/30 09:58:11;;;;;;;;;;;;;;;20.97;56.95;101807.78;4976364;28;1021;-61
2021/09/30 10:00:36;;;;;;;;;;;;;;;20.96;56.20;101804.19;4975846;28;1033;-55
2021/09/30 10:03:12;;;;;;;;;;;;;;;20.35;56.26;101807.75;4976217;28;998;-57
2021/09/30 10:05:37;;;;;;;;;;;;;;;19.98;54.56;101804.09;4973904;28;1049;-55
2021/09/30 10:08:03;;;;;;;;;;;;;;;19.62;52.92;101814.94;4975145;28;825;-60
2021/09/30 10:10:29;;;;;;;;;;;;;;;19.34;51.51;101813.44;4975206;28;1907;-60
2021/09/30 10:12:54;;;;;;;;;;;;;;;18.98;50.88;101807.69;4975984;28;978;-59
2021/09/30 10:15:19;;;;;;;;;;;;;;;18.81;50.41;101814.13;4973203;28;1144;-60
2021/09/30 10:17:45;;;;;;;;;;;;;;;19.19;52.98;101814.16;4976700;28;1041;-60
2021/09/30 10:20:10;;;;;;;;;;;;;;;19.51;55.29;101817.94;4979815;28;1010;-61
2021/09/30 10:22:36;;;;;;;;;;;;;;;19.56;57.03;101813.28;4978195;28;864;-58
2021/09/30 10:25:05;;;;;;;;;;;;;;;19.87;57.47;101818.94;4978773;28;899;-60
2021/09/30 10:27:30;;;;;;;;;;;;;;;20.15;57.70;101814.06;4977511;28;1250;-61
2021/09/30 10:29:56;;;;;;;;;;;;;;;20.40;57.84;101809.66;4971985;28;1984;-61
2021/09/30 10:32:22;;;;;;;;;;;;;;;20.44;57.99;101817.16;4974392;28;1390;-60
2021/09/30 10:34:48;;;;;;;;;;;;;;;20.74;57.16;101821.06;4977755;28;1177;-61
2021/09/30 10:37:17;;;;;;;;;;;;;;;20.55;56.70;101822.69;4976921;28;1113;-61
2021/09/30 10:39:43;;;;;;;;;;;;;;;20.11;56.38;101827.56;4979474;28;863;-60
2021/09/30 10:42:08;;;;;;;;;;;;;;;19.72;56.41;101830.72;4979891;28;1204;-60
2021/09/30 10:44:35;;;;;;;;;;;;;;;19.61;55.31;101832.59;4973295;28;1041;-60
2021/09/30 10:47:07;;;;;;;;;;;;;;;19.28;54.96;101829.13;4978278;28;1033;-59
2021/09/30 10:49:42;;;;;;;;;;;;;;;19.21;54.02;101824.94;4979237;28;1006;-61
2021/09/30 10:52:26;;;;;;;;;;;;;;;19.10;53.16;101827.63;4969847;28;1902;-60
2021/09/30 10:55:14;;;;;;;;;;;;;;;18.96;54.14;101832.75;4976343;28;1116;-60
2021/09/30 10:57:42;;;;;;;;;;;;;;;19.34;54.45;101829.97;4966701;28;1468;-60
2021/09/30 11:00:11;;;;;;;;;;;;;;;19.31;55.82;101839.63;4972571;28;1113;-61
2021/09/30 11:02:55;;;;;;;;;;;;;;;19.45;56.50;101828.94;4975758;28;1020;-61
2021/09/30 11:05:20;;;;;;;;;;;;;;;19.75;56.38;101827.41;4972172;28;1216;-61
2021/09/30 11:07:46;;;;;;;;;;;;;;;19.96;56.40;101833.06;4977014;28;1117;-61
2021/09/30 11:10:11;;;;;;;;;;;;;;;19.95;56.94;101825.88;4970731;28;1975;-61
2021/09/30 11:12:36;;;;;;;;;;;;;;;20.12;56.70;101823.72;4975172;28;1279;-61
2021/09/30 11:15:02;;;;;;;;;;;;;;;20.17;56.80;101823.75;4972701;28;934;-61
2021/09/30 11:17:34;;;;;;;;;;;;;;;20.14;57.08;101828.97;4975262;28;1449;-61
2021/09/30 11:20:18;;;;;;;;;;;;;;;20.02;57.71;101828.38;4974352;28;942;-60
2021/09/30 11:22:44;;;;;;;;;;;;;;;20.37;56.85;101826.81;4975248;28;1140;-60
2021/09/30 11:25:09;;;;;;;;;;;;;;;20.40;56.87;101824.34;4974488;28;1065;-60
2021/09/30 11:27:35;;;;;;;;;;;;;;;20.10;57.80;101825.91;4975686;28;954;-60
2021/09/30 11:30:16;;;;;;;;;;;;;;;20.32;57.52;101822.09;4973195;28;1910;-60
2021/09/30 11:32:41;;;;;;;;;;;;;;;20.35;57.48;101821.56;4978615;28;1495;-58
2021/09/30 11:35:07;;;;;;;;;;;;;;;20.30;57.63;101818.78;4975854;28;1120;-60
2021/09/30 11:37:37;;;;;;;;;;;;;;;20.72;56.65;101828.81;4971292;28;986;-62
2021/09/30 11:40:05;;;;;;;;;;;;;;;20.44;57.28;101822.69;4978571;28;1092;-61
2021/09/30 11:42:37;;;;;;;;;;;;;;;20.42;57.53;101813.81;4978247;28;1045;-60
2021/09/30 11:45:03;;;;;;;;;;;;;;;20.51;57.22;101825.19;4978013;28;1018;-59
2021/09/30 11:47:29;;;;;;;;;;;;;;;20.51;57.40;101817.72;4977761;28;1164;-60
2021/09/30 11:49:55;;;;;;;;;;;;;;;20.78;56.59;101819.41;4972154;28;1041;-60
2021/09/30 11:52:20;;;;;;;;;;;;;;;20.84;56.29;101821.03;4976104;28;1984;-60
2021/09/30 11:54:45;;;;;;;;;;;;;;;20.79;56.42;101812.78;4977700;28;1037;-60
2021/09/30 11:57:20;;;;;;;;;;;;;;;20.81;56.40;101816.09;4977484;28;1176;-60
2021/09/30 11:59:45;;;;;;;;;;;;;;;20.74;56.82;101804.47;4976620;28;962;-60
2021/09/30 12:02:12;;;;;;;;;;;;;;;20.84;56.29;101815.53;4972010;28;1363;-58
2021/09/30 12:04:43;;;;;;;;;;;;;;;20.85;56.35;101810.84;4977430;28;1196;-60
2021/09/30 12:07:15;;;;;;;;;;;;;;;20.79;56.32;101811.94;4975728;28;1236;-58
2021/09/30 12:09:41;;;;;;;;;;;;;;;20.70;56.82;101819.13;4975342;28;1132;-61
2021/09/30 12:12:06;;;;;;;;;;;;;;;20.85;56.28;101822.72;4977514;28;1971;-60
2021/09/30 12:14:38;;;;;;;;;;;;;;;21.01;55.67;101819.94;4977055;28;990;-60
2021/09/30 12:17:05;;;;;;;;;;;;;;;21.06;55.83;101814.41;4978031;28;958;-60
2021/09/30 12:19:33;;;;;;;;;;;;;;;20.94;55.96;101817.44;4977877;28;999;-60
2021/09/30 12:21:59;;;;;;;;;;;;;;;20.93;56.09;101809.44;4977130;28;1187;-60
2021/09/30 12:24:25;;;;;;;;;;;;;;;20.38;56.82;101815.47;4977831;28;1028;-59
2021/09/30 12:26:51;;;;;;;;;;;;;;;20.37;55.18;101813.00;4977734;28;942;-59
2021/09/30 12:29:17;;;;;;;;;;;;;;;20.04;54.72;101820.66;4977429;28;1029;-59
2021/09/30 12:31:43;;;;;;;;;;;;;;;19.96;53.82;101817.34;4977173;28;1946;-58
2021/09/30 12:34:23;;;;;;;;;;;;;;;19.58;53.46;101829.56;4976754;28;1139;-59
2021/09/30 12:36:49;;;;;;;;;;;;;;;19.44;52.75;101827.28;4973790;28;1004;-60
2021/09/30 12:39:14;;;;;;;;;;;;;;;19.16;52.79;101825.72;4977133;28;986;-59
2021/09/30 12:41:41;;;;;;;;;;;;;;;19.05;52.74;101827.56;4974989;28;1149;-61
2021/09/30 12:44:10;;;;;;;;;;;;;;;19.03;52.67;101829.78;4975780;28;1038;-60
2021/09/30 12:46:45;;;;;;;;;;;;;;;19.23;53.50;101825.50;4976893;28;1021;-60
2021/09/30 12:49:11;;;;;;;;;;;;;;;19.40;54.55;101826.16;4977297;28;978;-60
2021/09/30 12:51:36;;;;;;;;;;;;;;;19.53;55.74;101824.84;4974169;28;1975;-60
2021/09/30 12:54:02;;;;;;;;;;;;;;;19.65;56.57;101827.38;4975959;28;1004;-60
2021/09/30 12:56:28;;;;;;;;;;;;;;;19.86;56.47;101822.81;4973633;28;997;-60
2021/09/30 12:58:53;;;;;;;;;;;;;;;19.97;56.86;101829.19;4974569;28;899;-60
2021/09/30 13:01:22;;;;;;;;;;;;;;;20.07;57.10;101828.41;4977818;28;1335;-60
2021/09/30 13:04:07;;;;;;;;;;;;;;;20.15;57.07;101831.47;4977356;28;966;-60
2021/09/30 13:06:32;;;;;;;;;;;;;;;20.25;56.96;101827.06;4976810;28;1172;-58
2021/09/30 13:08:58;;;;;;;;;;;;;;;20.47;56.69;101827.66;4977496;28;966;-59
2021/09/30 13:11:24;;;;;;;;;;;;;;;20.40;56.96;101827.09;4975576;28;1969;-60
2021/09/30 13:14:08;;;;;;;;;;;;;;;20.46;56.92;101825.16;4972912;28;958;-59
2021/09/30 13:16:34;;;;;;;;;;;;;;;20.59;56.86;101819.09;4976571;28;1089;-61
2021/09/30 13:18:59;;;;;;;;;;;;;;;20.29;57.72;101819.91;4972723;28;1293;-61
2021/09/30 13:21:25;;;;;;;;;;;;;;;20.66;56.73;101818.81;4974065;28;1236;-60
2021/09/30 13:23:50;;;;;;;;;;;;;;;20.70;56.80;101821.91;4976089;28;1018;-61
2021/09/30 13:26:15;;;;;;;;;;;;;;;20.39;57.53;101824.59;4969887;28;1211;-60
2021/09/30 13:28:41;;;;;;;;;;;;;;;20.51;57.38;101828.75;4976460;28;1208;-59
2021/09/30 13:31:06;;;;;;;;;;;;;;;20.40;57.67;101820.72;4976640;28;1906;-61
2021/09/30 13:33:32;;;;;;;;;;;;;;;20.67;56.95;101817.72;4971974;28;1160;-61
2021/09/30 13:35:58;;;;;;;;;;;;;;;20.77;56.67;101826.03;4976592;28;1135;-60
2021/09/30 13:38:23;;;;;;;;;;;;;;;20.80;56.60;101825.50;4971277;28;1155;-60
2021/09/30 13:40:49;;;;;;;;;;;;;;;20.97;55.98;101819.69;4973191;28;1033;-61
2021/09/30 13:43:16;;;;;;;;;;;;;;;20.77;56.53;101816.91;4973878;28;1010;-60
2021/09/30 13:45:41;;;;;;;;;;;;;;;20.46;57.17;101820.47;4976307;28;1013;-62
2021/09/30 13:48:07;;;;;;;;;;;;;;;20.45;57.26;101823.50;4976788;28;1165;-61
2021/09/30 13:50:33;;;;;;;;;;;;;;;20.42;57.10;101824.88;4972764;28;1907;-61
2021/09/30 13:52:59;;;;;;;;;;;;;;;20.37;57.26;101824.88;4978381;28;853;-61
2021/09/30 13:55:24;;;;;;;;;;;;;;;20.30;57.45;101819.63;4980330;28;1018;-61
2021/09/30 13:57:50;;;;;;;;;;;;;;;20.59;56.51;101829.31;4978099;28;1125;-61
2021/09/30 14:00:16;;;;;;;;;;;;;;;20.41;56.73;101831.53;4980105;28;1171;-60
2021/09/30 14:02:41;;;;;;;;;;;;;;;20.43;56.83;101822.97;4980170;28;1109;-60
2021/09/30 14:05:08;;;;;;;;;;;;;;;20.37;57.05;101827.66;4980046;28;950;-61
2021/09/30 14:07:35;;;;;;;;;;;;;;;20.28;57.06;101823.75;4976585;28;997;-60
2021/09/30 14:10:02;;;;;;;;;;;;;;;20.18;57.35;101830.91;4980264;28;982;-61
2021/09/30 14:12:28;;;;;;;;;;;;;;;20.39;56.59;101828.19;4966959;28;2698;-61
2021/09/30 14:14:53;;;;;;;;;;;;;;;20.35;56.75;101821.56;4976588;28;1200;-60
2021/09/30 14:17:19;;;;;;;;;;;;;;;20.45;56.54;101821.56;4979963;28;1129;-58
2021/09/30 14:19:44;;;;;;;;;;;;;;;20.44;56.52;101827.34;4978308;28;1501;-61
2021/09/30 14:22:09;;;;;;;;;;;;;;;20.44;56.39;101825.44;4978495;28;1207;-61
2021/09/30 14:24:35;;;;;;;;;;;;;;;20.34;56.60;101828.19;4979940;28;1006;-61
2021/09/30 14:27:01;;;;;;;;;;;;;;;20.51;56.22;101825.19;4973535;28;1108;-60
2021/09/30 14:29:27;;;;;;;;;;;;;;;20.50;56.30;101821.56;4973853;28;975;-60
2021/09/30 14:31:52;;;;;;;;;;;;;;;20.56;56.08;101819.63;4979385;28;1914;-60
2021/09/30 14:34:18;;;;;;;;;;;;;;;20.45;56.39;101823.50;4975268;28;1341;-61
2021/09/30 14:36:43;;;;;;;;;;;;;;;20.29;56.88;101819.91;4979249;28;1144;-60
2021/09/30 14:39:08;;;;;;;;;;;;;;;20.38;56.41;101818.25;4979945;28;1108;-61
2021/09/30 14:41:34;;;;;;;;;;;;;;;20.18;56.90;101803.28;4978598;28;1112;-61
2021/09/30 14:44:00;;;;;;;;;;;;;;;20.21;56.92;101806.63;4979303;28;1002;-57
2021/09/30 14:46:25;;;;;;;;;;;;;;;20.28;56.72;101802.47;4979365;28;939;-57
2021/09/30 14:48:50;;;;;;;;;;;;;;;20.17;57.18;101796.13;4975005;28;1002;-61
2021/09/30 14:51:19;;;;;;;;;;;;;;;20.26;56.79;101806.59;4978322;28;1944;-61
2021/09/30 14:53:44;;;;;;;;;;;;;;;20.25;56.73;101799.44;4977537;28;1025;-61
2021/09/30 14:56:10;;;;;;;;;;;;;;;20.25;56.73;101791.97;4978279;28;1132;-60
2021/09/30 14:58:35;;;;;;;;;;;;;;;20.29;56.64;101792.28;4979231;28;1097;-62
2021/09/30 15:01:01;;;;;;;;;;;;;;;20.28;56.80;101796.13;4975509;28;986;-61
2021/09/30 15:03:27;;;;;;;;;;;;;;;20.45;56.05;101791.16;4970692;28;957;-61
2021/09/30 15:05:53;;;;;;;;;;;;;;;20.25;56.73;101782.88;4976470;28;1052;-61
2021/09/30 15:08:18;;;;;;;;;;;;;;;20.40;56.25;101785.66;4973035;28;1002;-61
2021/09/30 15:10:44;;;;;;;;;;;;;;;20.40;56.35;101780.13;4975616;28;1902;-58
2021/09/30 15:13:09;;;;;;;;;;;;;;;20.54;55.85;101776.81;4976754;28;1085;-62
2021/09/30 15:15:35;;;;;;;;;;;;;;;20.14;57.09;101770.97;4978378;28;982;-60
2021/09/30 15:18:08;;;;;;;;;;;;;;;20.25;57.02;101774.59;4978902;28;1231;-59
2021/09/30 15:23:03;;;;;;;;;;;;;;;20.24;56.96;101778.44;4975555;28;1216;-61
2021/09/30 15:25:28;;;;;;;;;;;;;;;20.33;56.55;101779.56;4973471;28;1045;-61
2021/09/30 15:27:54;;;;;;;;;;;;;;;20.39;56.27;101781.22;4972523;28;1284;-61
2021/09/30 15:30:20;;;;;;;;;;;;;;;20.41;56.35;101773.50;4975867;28;1938;-61
2021/09/30 15:32:45;;;;;;;;;;;;;;;20.22;57.01;101784.25;4978281;28;1041;-61
2021/09/30 15:35:11;;;;;;;;;;;;;;;20.18;57.08;101780.38;4975143;28;1109;-62
2021/09/30 15:37:36;;;;;;;;;;;;;;;20.27;56.53;101783.41;4974423;28;989;-52
2021/09/30 15:40:03;;;;;;;;;;;;;;;20.59;55.72;101796.16;4974916;28;1116;-56
2021/09/30 15:42:28;;;;;;;;;;;;;;;20.52;55.89;101796.44;4977723;28;1306;-58
2021/09/30 15:44:57;;;;;;;;;;;;;;;20.41;56.00;101800.28;4978293;28;990;-61
2021/09/30 15:47:22;;;;;;;;;;;;;;;20.28;56.37;101801.66;4978422;28;1116;-60
2021/09/30 15:49:48;;;;;;;;;;;;;;;20.31;56.29;101804.72;4978411;28;1112;-60
2021/09/30 15:52:13;;;;;;;;;;;;;;;20.20;56.34;101805.78;4970183;28;1906;-60
2021/09/30 15:54:40;;;;;;;;;;;;;;;20.28;56.19;101804.41;4971506;28;1093;-60
2021/09/30 15:57:06;;;;;;;;;;;;;;;20.13;56.64;101813.50;4971742;28;1165;-60
2021/09/30 15:59:32;;;;;;;;;;;;;;;20.17;56.26;101814.63;4977754;28;1209;-60
2021/09/30 16:01:57;;;;;;;;;;;;;;;20.29;56.09;101809.66;4977291;28;1392;-55